createdAt,value
2019-05-02T00:01:39.594Z,9.68
2019-05-02T00:04:12.400Z,8.63
2019-05-02T00:06:42.978Z,13.65
2019-05-02T00:09:11.791Z,10.30
2019-05-02T00:11:40.995Z,14.80
2019-05-02T00:14:10.393Z,14.35
2019-05-02T00:16:39.690Z,16.10
2019-05-02T00:19:14.101Z,22.87
2019-05-02T00:21:43.118Z,22.02
2019-05-02T00:24:13.734Z,20.97
2019-05-02T00:26:42.827Z,18.50
2019-05-02T00:29:12.029Z,22.90
2019-05-02T00:31:41.873Z,22.67
2019-05-02T00:34:12.779Z,22.20
2019-05-02T00:36:42.895Z,27.27
2019-05-02T00:39:16.115Z,24.07
2019-05-02T00:41:45.181Z,28.05
2019-05-02T00:44:14.272Z,26.80
2019-05-02T00:46:43.368Z,25.57
2019-05-02T00:49:12.463Z,22.37
2019-05-02T00:51:41.560Z,24.75
2019-05-02T00:54:10.574Z,26.97
2019-05-02T00:56:44.056Z,25.75
2019-05-02T00:59:11.407Z,25.50
2019-05-02T01:01:48.918Z,24.90
2019-05-02T01:04:29.560Z,28.47
2019-05-02T01:06:58.862Z,26.10
2019-05-02T01:09:28.056Z,26.00
2019-05-02T01:12:03.184Z,28.83
2019-05-02T01:14:31.731Z,28.90
2019-05-02T01:17:00.795Z,26.17
2019-05-02T01:19:33.755Z,29.67
2019-05-02T01:22:02.950Z,28.65
2019-05-02T01:24:34.077Z,29.07
2019-05-02T01:27:06.314Z,23.38
2019-05-02T01:29:45.700Z,22.45
2019-05-02T01:32:16.400Z,27.25
2019-05-02T01:34:54.502Z,27.77
2019-05-02T01:37:25.273Z,27.05
2019-05-02T01:39:54.381Z,29.50
2019-05-02T01:42:24.803Z,27.05
2019-05-02T01:44:53.998Z,27.65
2019-05-02T01:47:23.013Z,28.57
2019-05-02T01:49:57.055Z,26.52
2019-05-02T01:52:25.879Z,26.82
2019-05-02T01:54:55.179Z,29.60
2019-05-02T01:57:24.273Z,28.95
2019-05-02T01:59:53.370Z,34.55
2019-05-02T02:02:22.387Z,28.80
2019-05-02T02:04:56.789Z,27.25
2019-05-02T02:07:23.113Z,28.05
2019-05-02T02:09:52.410Z,28.83
2019-05-02T02:12:27.219Z,30.92
2019-05-02T02:14:56.341Z,29.42
2019-05-02T02:17:25.560Z,32.60
2019-05-02T02:19:56.269Z,32.17
2019-05-02T02:22:26.998Z,31.57
2019-05-02T02:25:09.621Z,35.80
2019-05-02T02:27:39.319Z,32.50
2019-05-02T02:30:17.756Z,31.93
2019-05-02T02:32:41.752Z,34.38
2019-05-02T02:35:12.678Z,37.35
2019-05-02T02:37:51.810Z,33.40
2019-05-02T02:40:12.210Z,29.80
2019-05-02T02:42:42.297Z,34.78
2019-05-02T02:45:18.965Z,33.20
2019-05-02T02:47:52.808Z,34.58
2019-05-02T02:50:17.264Z,35.48
2019-05-02T02:52:47.168Z,34.98
2019-05-02T02:55:21.821Z,33.88
2019-05-02T02:57:48.051Z,33.50
2019-05-02T03:00:17.315Z,30.20
2019-05-02T03:02:50.046Z,31.60
2019-05-02T03:05:26.297Z,35.27
2019-05-02T03:07:50.870Z,34.63
2019-05-02T03:10:20.011Z,32.65
2019-05-02T03:13:06.966Z,35.90
2019-05-02T03:15:38.709Z,34.55
2019-05-02T03:18:07.918Z,29.05
2019-05-02T03:20:40.570Z,31.10
2019-05-02T03:23:15.156Z,29.75
2019-05-02T03:25:50.337Z,31.85
2019-05-02T03:28:18.039Z,27.13
2019-05-02T03:30:43.116Z,28.50
2019-05-02T03:33:12.628Z,32.65
2019-05-02T03:35:48.434Z,26.48
2019-05-02T03:38:12.976Z,24.23
2019-05-02T03:40:45.840Z,20.90
2019-05-02T03:43:18.925Z,22.43
2019-05-02T03:45:45.777Z,19.67
2019-05-02T03:48:18.498Z,16.82
2019-05-02T03:50:46.728Z,20.05
2019-05-02T03:53:17.793Z,20.00
2019-05-02T03:55:46.660Z,18.55
2019-05-02T03:58:17.022Z,20.60
2019-05-02T04:00:46.689Z,21.10
2019-05-02T04:03:16.087Z,20.32
2019-05-02T04:05:45.292Z,19.98
2019-05-02T04:08:20.783Z,20.12
2019-05-02T04:10:52.667Z,20.12
2019-05-02T04:13:19.638Z,21.23
2019-05-02T04:15:48.924Z,20.32
2019-05-02T04:18:18.073Z,20.10
2019-05-02T04:20:51.959Z,29.57
2019-05-02T04:23:27.645Z,28.15
2019-05-02T04:25:53.515Z,23.45
2019-05-02T04:28:23.023Z,30.75
2019-05-02T04:30:53.908Z,28.23
2019-05-02T04:33:28.735Z,23.87
2019-05-02T04:35:53.572Z,34.43
2019-05-02T04:38:31.765Z,28.45
2019-05-02T04:40:53.397Z,181.47
2019-05-02T04:43:22.494Z,42.78
2019-05-02T04:45:56.078Z,112.30
2019-05-02T04:48:22.319Z,68.47
2019-05-02T04:50:51.743Z,34.65
2019-05-02T04:53:25.964Z,28.55
2019-05-02T04:56:01.606Z,28.50
2019-05-02T04:58:27.663Z,35.38
2019-05-02T05:00:58.061Z,29.63
2019-05-02T05:03:28.516Z,30.60
2019-05-02T05:06:06.817Z,24.95
2019-05-02T05:08:32.547Z,23.92
2019-05-02T05:11:01.787Z,25.77
2019-05-02T05:13:31.021Z,24.10
2019-05-02T05:16:02.989Z,26.23
2019-05-02T05:18:37.621Z,40.78
2019-05-02T05:21:10.377Z,27.82
2019-05-02T05:23:41.355Z,24.40
2019-05-02T05:26:11.407Z,26.02
2019-05-02T05:28:44.536Z,27.00
2019-05-02T05:31:18.436Z,29.95
2019-05-02T05:33:47.872Z,27.98
2019-05-02T05:36:19.778Z,28.07
2019-05-02T05:38:47.903Z,28.77
2019-05-02T05:41:21.358Z,23.67
2019-05-02T05:43:50.112Z,25.35
2019-05-02T05:46:18.400Z,25.90
2019-05-02T05:48:47.776Z,23.40
2019-05-02T05:51:20.706Z,28.05
2019-05-02T05:53:59.471Z,27.45
2019-05-02T05:56:27.978Z,30.15
2019-05-02T05:58:59.153Z,32.70
2019-05-02T06:01:34.330Z,23.12
2019-05-02T06:03:58.447Z,23.83
2019-05-02T06:06:27.597Z,23.35
2019-05-02T06:08:56.942Z,21.93
2019-05-02T06:11:26.036Z,22.73
2019-05-02T06:13:56.055Z,21.95
2019-05-02T06:16:25.150Z,20.05
2019-05-02T06:18:58.753Z,21.70
2019-05-02T06:21:27.842Z,19.85
2019-05-02T06:23:56.938Z,22.58
2019-05-02T06:26:27.060Z,22.55
2019-05-02T06:28:59.945Z,23.35
2019-05-02T06:31:30.979Z,23.70
2019-05-02T06:34:02.102Z,17.32
2019-05-02T06:36:32.105Z,18.67
2019-05-02T06:39:01.438Z,16.90
2019-05-02T06:41:41.676Z,19.30
2019-05-02T06:44:18.544Z,15.95
2019-05-02T06:46:47.257Z,17.15
2019-05-02T06:49:16.570Z,18.50
2019-05-02T06:51:50.994Z,19.05
2019-05-02T06:54:18.068Z,20.48
2019-05-02T06:56:49.211Z,17.80
2019-05-02T06:59:22.003Z,19.12
2019-05-02T07:01:57.260Z,18.67
2019-05-02T07:04:24.854Z,20.05
2019-05-02T07:06:58.752Z,107.43
2019-05-02T07:09:23.152Z,23.85
2019-05-02T07:11:57.396Z,39.08
2019-05-02T07:14:24.136Z,33.08
2019-05-02T07:17:07.643Z,26.87
2019-05-02T07:19:38.796Z,25.25
2019-05-02T07:22:08.275Z,23.38
2019-05-02T07:24:37.369Z,24.52
2019-05-02T07:27:07.793Z,27.05
2019-05-02T07:29:36.992Z,28.40
2019-05-02T07:32:06.719Z,29.52
2019-05-02T07:34:35.915Z,35.28
2019-05-02T07:37:08.443Z,35.45
2019-05-02T07:39:40.856Z,35.08
2019-05-02T07:42:09.025Z,32.58
2019-05-02T07:44:38.215Z,34.03
2019-05-02T07:47:07.309Z,37.17
2019-05-02T07:49:37.432Z,40.43
2019-05-02T07:52:06.548Z,39.18
2019-05-02T07:54:35.621Z,40.23
2019-05-02T07:57:06.964Z,44.83
2019-05-02T07:59:36.059Z,46.37
2019-05-02T08:02:08.311Z,44.55
2019-05-02T08:04:43.455Z,49.05
2019-05-02T08:07:11.640Z,48.65
2019-05-02T08:09:44.084Z,46.90
2019-05-02T08:12:12.288Z,51.92
2019-05-02T08:14:41.381Z,46.68
2019-05-02T08:17:16.155Z,43.08
2019-05-02T08:19:41.821Z,48.15
2019-05-02T08:22:13.509Z,40.90
2019-05-02T08:24:42.468Z,43.60
2019-05-02T08:27:23.220Z,42.40
2019-05-02T08:30:00.018Z,33.78
2019-05-02T08:32:30.131Z,30.02
2019-05-02T08:34:59.263Z,27.45
2019-05-02T08:37:28.437Z,29.18
2019-05-02T08:39:58.644Z,26.05
2019-05-02T08:42:32.468Z,25.62
2019-05-02T08:45:02.864Z,21.73
2019-05-02T08:47:31.973Z,20.90
2019-05-02T08:50:01.167Z,23.85
2019-05-02T08:52:30.269Z,24.47
2019-05-02T08:54:59.358Z,22.42
2019-05-02T08:57:30.098Z,19.12
2019-05-02T09:00:00.238Z,18.02
2019-05-02T09:02:40.801Z,18.02
2019-05-02T09:05:04.603Z,16.50
2019-05-02T09:07:31.556Z,16.87
2019-05-02T09:10:05.914Z,12.50
2019-05-02T09:12:36.836Z,10.05
2019-05-02T09:15:11.811Z,12.45
2019-05-02T09:17:46.518Z,11.63
2019-05-02T09:20:18.689Z,8.53
2019-05-02T09:22:46.636Z,8.73
2019-05-02T09:25:15.252Z,8.75
2019-05-02T09:27:44.329Z,7.65
2019-05-02T09:30:17.057Z,10.98
2019-05-02T09:32:45.989Z,7.37
2019-05-02T09:35:15.285Z,6.10
2019-05-02T09:37:44.485Z,7.47
2019-05-02T09:40:16.783Z,9.20
2019-05-02T09:42:47.484Z,5.90
2019-05-02T09:45:27.785Z,10.68
2019-05-02T09:48:03.974Z,8.58
2019-05-02T09:50:31.358Z,5.70
2019-05-02T09:53:01.966Z,9.75
2019-05-02T09:55:31.779Z,11.50
2019-05-02T09:58:05.299Z,14.20
2019-05-02T10:00:52.558Z,21.90
2019-05-02T10:03:22.629Z,15.48
2019-05-02T10:05:52.334Z,16.02
2019-05-02T10:08:23.669Z,21.65
2019-05-02T10:10:53.244Z,12.40
2019-05-02T10:13:27.843Z,16.48
2019-05-02T10:15:57.120Z,13.03
2019-05-02T10:18:30.222Z,15.25
2019-05-02T10:20:56.868Z,13.30
2019-05-02T10:23:27.170Z,16.00
2019-05-02T10:25:56.265Z,16.20
2019-05-02T10:28:25.361Z,16.62
2019-05-02T10:30:56.615Z,13.80
2019-05-02T10:33:27.934Z,20.43
2019-05-02T10:36:02.734Z,17.42
2019-05-02T10:38:32.544Z,19.92
2019-05-02T10:41:04.572Z,16.52
2019-05-02T10:43:33.010Z,20.80
2019-05-02T10:46:09.505Z,12.88
2019-05-02T10:48:47.665Z,16.25
2019-05-02T10:51:35.447Z,14.03
2019-05-02T10:54:12.132Z,14.68
2019-05-02T10:56:42.349Z,57.20
2019-05-02T10:59:15.638Z,17.42
2019-05-02T11:01:57.658Z,16.17
2019-05-02T11:04:29.266Z,13.03
2019-05-02T11:06:58.997Z,20.05
2019-05-02T11:09:28.291Z,9.23
2019-05-02T11:11:57.667Z,12.37
2019-05-02T11:14:31.819Z,13.65
2019-05-02T11:17:17.576Z,9.03
2019-05-02T11:19:47.300Z,6.97
2019-05-02T11:22:16.507Z,7.28
2019-05-02T11:24:45.592Z,8.58
2019-05-02T11:27:14.619Z,8.30
2019-05-02T11:29:43.678Z,9.08
2019-05-02T11:32:16.255Z,7.60
2019-05-02T11:34:47.807Z,5.10
2019-05-02T11:37:22.510Z,6.80
2019-05-02T11:40:00.365Z,8.68
2019-05-02T11:42:27.256Z,5.80
2019-05-02T11:44:55.678Z,9.50
2019-05-02T11:47:26.591Z,11.57
2019-05-02T11:49:55.959Z,7.22
2019-05-02T11:52:27.485Z,5.62
2019-05-02T11:54:57.868Z,18.55
2019-05-02T11:57:28.643Z,4.78
2019-05-02T11:59:59.494Z,4.42
2019-05-02T12:02:38.877Z,8.35
2019-05-02T12:05:10.224Z,6.50
2019-05-02T12:07:41.777Z,4.30
2019-05-02T12:10:12.565Z,5.50
2019-05-02T12:12:42.996Z,5.55
2019-05-02T12:15:12.765Z,7.50
2019-05-02T12:17:42.032Z,6.22
2019-05-02T12:20:11.938Z,4.75
2019-05-02T12:22:43.328Z,7.80
2019-05-02T12:25:12.742Z,4.05
2019-05-02T12:27:42.512Z,6.53
2019-05-02T12:30:12.206Z,5.53
2019-05-02T12:32:42.669Z,4.70
2019-05-02T12:35:14.838Z,5.47
2019-05-02T12:37:47.059Z,9.38
2019-05-02T12:40:15.116Z,5.35
2019-05-02T12:42:44.267Z,6.47
2019-05-02T12:45:13.763Z,9.55
2019-05-02T12:47:43.882Z,6.25
2019-05-02T12:50:13.325Z,6.95
2019-05-02T12:52:42.868Z,6.60
2019-05-02T12:55:12.820Z,13.55
2019-05-02T12:57:42.841Z,11.70
2019-05-02T13:00:12.973Z,6.22
2019-05-02T13:02:58.732Z,7.08
2019-05-02T13:05:27.922Z,3.17
2019-05-02T13:07:59.168Z,7.75
2019-05-02T13:10:43.522Z,5.53
2019-05-02T13:13:16.219Z,5.83
2019-05-02T13:15:46.461Z,3.65
2019-05-02T13:18:18.733Z,4.53
2019-05-02T13:20:47.688Z,9.45
2019-05-02T13:23:32.014Z,7.62
2019-05-02T13:26:10.576Z,4.58
2019-05-02T13:28:36.058Z,9.38
2019-05-02T13:31:07.085Z,7.55
2019-05-02T13:33:42.687Z,6.92
2019-05-02T13:36:32.482Z,7.90
2019-05-02T13:39:02.723Z,7.62
2019-05-02T13:41:32.197Z,8.55
2019-05-02T13:44:02.165Z,15.18
2019-05-02T13:46:32.213Z,9.60
2019-05-02T13:49:02.130Z,6.83
2019-05-02T13:51:32.186Z,8.80
2019-05-02T13:54:02.396Z,12.25
2019-05-02T13:56:36.260Z,8.83
2019-05-02T13:59:06.333Z,7.30
2019-05-02T14:01:35.660Z,8.75
2019-05-02T14:04:10.111Z,9.00
2019-05-02T14:06:38.372Z,11.68
2019-05-02T14:09:28.134Z,12.47
2019-05-02T14:12:12.180Z,13.13
2019-05-02T14:14:42.355Z,12.80
2019-05-02T14:17:11.802Z,11.33
2019-05-02T14:19:45.057Z,12.03
2019-05-02T14:22:14.191Z,12.43
2019-05-02T14:24:43.285Z,12.63
2019-05-02T14:27:17.356Z,11.22
2019-05-02T14:29:46.454Z,9.83
2019-05-02T14:32:23.194Z,11.10
2019-05-02T14:34:53.797Z,12.10
2019-05-02T14:37:22.892Z,6.87
2019-05-02T14:39:53.525Z,8.50
2019-05-02T14:42:27.629Z,8.00
2019-05-02T14:45:08.959Z,9.78
2019-05-02T14:47:27.800Z,7.22
2019-05-02T14:50:01.080Z,7.90
2019-05-02T14:52:27.494Z,5.17
2019-05-02T14:54:56.589Z,10.85
2019-05-02T14:57:27.233Z,7.92
2019-05-02T14:59:59.444Z,10.45
2019-05-02T15:02:49.164Z,9.85
2019-05-02T15:05:29.466Z,9.58
2019-05-02T15:08:01.191Z,9.95
2019-05-02T15:10:36.218Z,5.90
2019-05-02T15:13:03.949Z,5.90
2019-05-02T15:15:40.478Z,5.62
2019-05-02T15:18:08.011Z,4.95
2019-05-02T15:20:38.717Z,8.98
2019-05-02T15:23:07.239Z,9.25
2019-05-02T15:25:37.543Z,4.33
2019-05-02T15:28:08.171Z,4.67
2019-05-02T15:30:47.790Z,6.03
2019-05-02T15:33:12.595Z,6.20
2019-05-02T15:35:43.584Z,4.85
2019-05-02T15:38:27.727Z,5.62
2019-05-02T15:40:53.722Z,5.50
2019-05-02T15:43:25.495Z,4.62
2019-05-02T15:45:54.566Z,5.55
2019-05-02T15:48:27.899Z,4.85
2019-05-02T15:51:00.123Z,6.05
2019-05-02T15:53:33.963Z,3.55
2019-05-02T15:56:18.705Z,4.50
2019-05-02T15:58:42.574Z,2.92
2019-05-02T16:01:41.552Z,3.87
2019-05-02T16:04:17.174Z,4.42
2019-05-02T16:06:49.421Z,6.08
2019-05-02T16:09:24.264Z,6.12
2019-05-02T16:11:57.093Z,4.45
2019-05-02T16:14:34.192Z,2.72
2019-05-02T16:17:17.722Z,2.50
2019-05-02T16:19:49.464Z,2.87
2019-05-02T16:22:23.578Z,2.72
2019-05-02T16:24:59.002Z,3.95
2019-05-02T16:27:34.416Z,3.45
2019-05-02T16:30:07.411Z,4.55
2019-05-02T16:32:38.742Z,2.70
2019-05-02T16:35:29.934Z,1.85
2019-05-02T16:38:07.095Z,1.80
2019-05-02T16:40:36.485Z,1.00
2019-05-02T16:43:14.148Z,3.67
2019-05-02T16:45:45.508Z,1.82
2019-05-02T16:48:19.770Z,1.35
2019-05-02T16:51:08.212Z,2.02
2019-05-02T16:53:34.837Z,1.60
2019-05-02T16:56:07.061Z,2.27
2019-05-02T16:58:38.061Z,3.50
2019-05-02T17:01:05.709Z,1.75
2019-05-02T17:03:39.512Z,3.62
2019-05-02T17:06:08.436Z,18.32
2019-05-02T17:08:44.532Z,39.10
2019-05-02T17:11:27.813Z,75.90
2019-05-02T17:13:59.392Z,23.45
2019-05-02T17:16:31.817Z,71.62
2019-05-02T17:21:35.026Z,19.15
2019-05-02T17:24:02.601Z,15.55
2019-05-02T17:26:34.319Z,8.28
2019-05-02T17:29:03.398Z,5.22
2019-05-02T17:31:33.268Z,5.75
2019-05-02T17:34:06.754Z,11.33
2019-05-02T17:36:35.860Z,20.77
2019-05-02T17:39:12.463Z,30.55
2019-05-02T17:41:45.620Z,12.28
2019-05-02T17:44:18.444Z,38.73
2019-05-02T17:46:58.256Z,23.32
2019-05-02T17:49:23.690Z,22.77
2019-05-02T17:52:18.998Z,11.00
2019-05-02T17:54:45.443Z,12.63
2019-05-02T17:57:15.933Z,5.33
2019-05-02T17:59:48.785Z,15.48
2019-05-02T18:02:21.964Z,8.25
2019-05-02T18:04:55.829Z,14.23
2019-05-02T18:07:31.673Z,3.72
2019-05-02T18:09:57.977Z,8.73
2019-05-02T18:12:27.163Z,16.50
2019-05-02T18:15:03.283Z,3.25
2019-05-02T18:17:32.524Z,5.28
2019-05-02T18:20:05.846Z,2.95
2019-05-02T18:22:39.955Z,6.08
2019-05-02T18:25:11.599Z,3.72
2019-05-02T18:27:42.118Z,7.80
2019-05-02T18:30:27.125Z,4.03
2019-05-02T18:32:57.867Z,3.20
2019-05-02T18:35:27.209Z,3.77
2019-05-02T18:38:00.129Z,9.75
2019-05-02T18:40:31.492Z,2.42
2019-05-02T18:43:03.560Z,2.47
2019-05-02T18:45:31.854Z,4.30
2019-05-02T18:48:05.163Z,5.05
2019-05-02T18:50:41.784Z,2.22
2019-05-02T18:53:13.740Z,2.77
2019-05-02T18:55:43.211Z,1.82
2019-05-02T18:58:12.834Z,2.22
2019-05-02T19:00:42.460Z,3.12
2019-05-02T19:03:13.240Z,4.00
2019-05-02T19:05:42.566Z,1.87
2019-05-02T19:08:12.029Z,1.92
2019-05-02T19:10:44.709Z,1.98
2019-05-02T19:13:15.577Z,1.50
2019-05-02T19:15:48.794Z,3.58
2019-05-02T19:18:18.117Z,3.05
2019-05-02T19:20:57.572Z,3.95
2019-05-02T19:23:25.672Z,2.12
2019-05-02T19:25:55.159Z,2.70
2019-05-02T19:28:39.189Z,3.02
2019-05-02T19:31:09.077Z,13.70
2019-05-02T19:33:42.541Z,5.12
2019-05-02T19:36:11.355Z,3.72
2019-05-02T19:38:42.704Z,3.70
2019-05-02T19:41:12.762Z,4.12
2019-05-02T19:43:49.553Z,3.67
2019-05-02T19:46:13.117Z,8.20
2019-05-02T19:48:43.330Z,35.92
2019-05-02T19:51:18.722Z,13.35
2019-05-02T19:53:46.730Z,9.45
2019-05-02T19:56:16.475Z,3.27
2019-05-02T19:58:48.106Z,2.55
2019-05-02T20:01:17.452Z,4.15
2019-05-02T20:03:47.383Z,6.20
2019-05-02T20:06:16.720Z,7.12
2019-05-02T20:08:52.463Z,3.37
2019-05-02T20:11:21.929Z,5.87
2019-05-02T20:13:51.217Z,3.85
2019-05-02T20:16:25.899Z,2.47
2019-05-02T20:18:59.462Z,2.37
2019-05-02T20:21:33.450Z,2.80
2019-05-02T20:24:04.122Z,3.50
2019-05-02T20:26:34.200Z,9.63
2019-05-02T20:29:03.539Z,5.62
2019-05-02T20:31:32.532Z,5.62
2019-05-02T20:34:02.548Z,6.45
2019-05-02T20:36:32.223Z,3.98
2019-05-02T20:39:02.332Z,4.47
2019-05-02T20:41:32.094Z,3.72
2019-05-02T20:44:03.887Z,5.33
2019-05-02T20:46:33.005Z,2.22
2019-05-02T20:49:02.544Z,3.37
2019-05-02T20:51:32.029Z,2.62
2019-05-02T20:54:02.124Z,2.83
2019-05-02T20:56:32.676Z,2.20
2019-05-02T20:59:05.287Z,2.02
2019-05-02T21:01:38.363Z,2.92
2019-05-02T21:04:12.237Z,2.50
2019-05-02T21:06:44.096Z,2.42
2019-05-02T21:09:17.718Z,2.25
2019-05-02T21:11:49.138Z,2.58
2019-05-02T21:14:18.146Z,4.12
2019-05-02T21:16:49.784Z,2.25
2019-05-02T21:19:21.629Z,2.62
2019-05-02T21:21:50.133Z,1.70
2019-05-02T21:24:23.899Z,2.25
2019-05-02T21:26:52.736Z,3.25
2019-05-02T21:29:25.950Z,2.67
2019-05-02T21:31:54.686Z,2.98
2019-05-02T21:34:23.378Z,2.05
2019-05-02T21:36:52.061Z,2.77
2019-05-02T21:39:22.510Z,2.55
2019-05-02T21:41:51.709Z,1.92
2019-05-02T21:44:22.269Z,2.15
2019-05-02T21:46:51.969Z,3.83
2019-05-02T21:49:40.063Z,3.83
2019-05-02T21:52:27.330Z,4.97
2019-05-02T21:55:12.748Z,4.33
2019-05-02T21:57:41.636Z,3.40
2019-05-02T22:00:12.189Z,4.75
2019-05-02T22:02:40.982Z,2.40
2019-05-02T22:05:12.596Z,5.17
2019-05-02T22:07:42.464Z,2.58
2019-05-02T22:10:12.120Z,2.87
2019-05-02T22:13:06.219Z,3.90
2019-05-02T22:15:38.886Z,2.30
2019-05-02T22:18:07.843Z,2.43
2019-05-02T22:20:42.680Z,2.50
2019-05-02T22:23:11.814Z,2.72
2019-05-02T22:25:41.984Z,2.58
2019-05-02T22:28:12.581Z,2.22
2019-05-02T22:30:42.880Z,2.52
2019-05-02T22:33:15.334Z,3.08
2019-05-02T22:35:44.064Z,2.22
2019-05-02T22:38:17.254Z,4.05
2019-05-02T22:40:47.463Z,3.87
2019-05-02T22:43:22.074Z,4.42
2019-05-02T22:45:51.373Z,2.42
2019-05-02T22:48:22.747Z,2.65
2019-05-02T22:50:54.784Z,2.55
2019-05-02T22:53:24.493Z,2.42
2019-05-02T22:55:53.289Z,3.83
2019-05-02T22:58:22.305Z,2.00
2019-05-02T23:00:52.209Z,2.15
2019-05-02T23:03:21.516Z,2.45
2019-05-02T23:05:55.522Z,4.37
2019-05-02T23:08:24.389Z,3.60
2019-05-02T23:10:57.681Z,4.28
2019-05-02T23:13:26.477Z,3.45
2019-05-02T23:15:55.169Z,2.77
2019-05-02T23:18:27.738Z,2.52
2019-05-02T23:20:56.517Z,2.62
2019-05-02T23:23:26.536Z,2.67
2019-05-02T23:25:56.780Z,3.12
2019-05-02T23:28:31.656Z,3.45
2019-05-02T23:31:00.268Z,3.17
2019-05-02T23:33:46.975Z,3.15
2019-05-02T23:36:15.696Z,3.75
2019-05-02T23:38:47.888Z,3.77
2019-05-02T23:41:22.093Z,2.98
2019-05-02T23:43:52.440Z,3.45
2019-05-02T23:46:26.088Z,2.90
2019-05-02T23:48:55.814Z,3.17
2019-05-02T23:51:24.489Z,3.87
2019-05-02T23:53:53.162Z,4.72
2019-05-02T23:56:22.156Z,4.15
2019-05-02T23:58:52.003Z,4.08
